createdAt,value
2018-07-30T00:00:57.328Z,2.80
2018-07-30T00:03:26.148Z,2.97
2018-07-30T00:06:01.464Z,3.13
2018-07-30T00:08:29.822Z,2.70
2018-07-30T00:10:58.151Z,3.53
2018-07-30T00:13:26.857Z,2.77
2018-07-30T00:15:55.420Z,2.60
2018-07-30T00:18:24.364Z,2.70
2018-07-30T00:20:53.357Z,3.30
2018-07-30T00:23:22.381Z,2.70
2018-07-30T00:25:51.876Z,3.07
2018-07-30T00:28:20.247Z,2.90
2018-07-30T00:30:48.576Z,2.77
2018-07-30T00:33:17.892Z,2.43
2018-07-30T00:35:46.770Z,2.87
2018-07-30T00:38:16.192Z,2.43
2018-07-30T00:40:44.584Z,2.90
2018-07-30T00:43:12.932Z,2.50
2018-07-30T00:45:41.387Z,2.63
2018-07-30T00:48:10.203Z,2.83
2018-07-30T00:50:38.583Z,2.93
2018-07-30T00:53:07.519Z,3.00
2018-07-30T00:55:35.886Z,2.30
2018-07-30T00:58:04.897Z,2.60
2018-07-30T01:00:33.235Z,2.93
2018-07-30T01:03:01.608Z,2.67
2018-07-30T01:05:30.764Z,2.50
2018-07-30T01:08:00.055Z,2.87
2018-07-30T01:10:28.553Z,2.60
2018-07-30T01:12:57.553Z,3.10
2018-07-30T01:15:27.323Z,3.03
2018-07-30T01:17:56.820Z,3.17
2018-07-30T01:20:25.176Z,2.70
2018-07-30T01:22:53.735Z,3.07
2018-07-30T01:25:22.131Z,3.00
2018-07-30T01:27:50.191Z,2.83
2018-07-30T01:30:18.523Z,3.03
2018-07-30T01:32:47.823Z,3.20
2018-07-30T01:35:16.953Z,2.67
2018-07-30T01:37:45.305Z,3.10
2018-07-30T01:40:14.152Z,2.97
2018-07-30T01:42:42.816Z,2.93
2018-07-30T01:45:11.156Z,3.23
2018-07-30T01:47:40.241Z,4.20
2018-07-30T01:50:08.596Z,3.60
2018-07-30T01:52:36.915Z,2.90
2018-07-30T01:55:05.275Z,3.20
2018-07-30T01:57:33.708Z,4.00
2018-07-30T02:00:02.033Z,3.70
2018-07-30T02:02:30.380Z,2.97
2018-07-30T02:05:00.482Z,3.07
2018-07-30T02:07:29.323Z,3.10
2018-07-30T02:09:57.764Z,3.23
2018-07-30T02:12:26.608Z,3.10
2018-07-30T02:14:54.932Z,3.03
2018-07-30T02:17:23.350Z,3.43
2018-07-30T02:19:51.712Z,2.97
2018-07-30T02:22:21.009Z,3.53
2018-07-30T02:24:49.416Z,2.60
2018-07-30T02:27:17.836Z,3.10
2018-07-30T02:29:46.628Z,3.27
2018-07-30T02:32:15.158Z,2.70
2018-07-30T02:34:43.913Z,2.90
2018-07-30T02:37:12.637Z,2.73
2018-07-30T02:39:41.092Z,3.33
2018-07-30T02:42:09.568Z,3.07
2018-07-30T02:44:37.908Z,3.40
2018-07-30T02:47:07.050Z,3.33
2018-07-30T02:49:35.397Z,3.33
2018-07-30T02:52:03.722Z,3.43
2018-07-30T02:54:32.670Z,3.53
2018-07-30T02:57:01.033Z,3.13
2018-07-30T02:59:29.377Z,3.87
2018-07-30T03:01:58.208Z,3.50
2018-07-30T03:04:26.572Z,3.10
2018-07-30T03:06:55.639Z,4.00
2018-07-30T03:09:24.048Z,3.20
2018-07-30T03:11:52.535Z,2.97
2018-07-30T03:14:20.877Z,2.97
2018-07-30T03:16:49.287Z,3.80
2018-07-30T03:19:17.660Z,2.97
2018-07-30T03:21:46.007Z,3.23
2018-07-30T03:24:14.913Z,3.63
2018-07-30T03:26:43.272Z,3.90
2018-07-30T03:29:11.738Z,2.93
2018-07-30T03:31:40.885Z,3.00
2018-07-30T03:34:09.468Z,3.10
2018-07-30T03:36:37.831Z,2.67
2018-07-30T03:39:08.355Z,3.17
2018-07-30T03:41:37.791Z,3.57
2018-07-30T03:44:06.843Z,3.23
2018-07-30T03:46:35.289Z,4.10
2018-07-30T03:49:04.616Z,2.93
2018-07-30T03:51:33.338Z,3.40
2018-07-30T03:54:01.725Z,3.83
2018-07-30T03:56:30.068Z,3.70
2018-07-30T03:58:58.615Z,3.00
2018-07-30T04:01:27.733Z,3.00
2018-07-30T04:03:56.146Z,3.57
2018-07-30T04:06:24.564Z,3.30
2018-07-30T04:08:54.053Z,3.40
2018-07-30T04:11:22.447Z,3.37
2018-07-30T04:13:51.016Z,3.37
2018-07-30T04:16:20.108Z,3.20
2018-07-30T04:18:49.203Z,3.10
2018-07-30T04:21:18.211Z,2.97
2018-07-30T04:23:46.811Z,3.80
2018-07-30T04:26:15.710Z,3.30
2018-07-30T04:28:44.204Z,3.77
2018-07-30T04:31:12.586Z,3.27
2018-07-30T04:33:40.653Z,4.07
2018-07-30T04:36:09.048Z,3.50
2018-07-30T04:38:37.868Z,3.33
2018-07-30T04:41:06.740Z,3.80
2018-07-30T04:43:35.068Z,3.40
2018-07-30T04:46:03.744Z,4.27
2018-07-30T04:48:39.023Z,3.67
2018-07-30T04:51:08.000Z,3.30
2018-07-30T04:53:36.112Z,3.90
2018-07-30T04:56:05.131Z,3.97
2018-07-30T04:58:33.665Z,3.30
2018-07-30T05:01:02.360Z,4.00
2018-07-30T05:03:31.469Z,3.63
2018-07-30T05:05:59.817Z,3.53
2018-07-30T05:08:28.430Z,4.00
2018-07-30T05:10:57.787Z,3.30
2018-07-30T05:13:26.320Z,3.50
2018-07-30T05:15:54.949Z,3.40
2018-07-30T05:18:23.281Z,3.20
2018-07-30T05:20:52.000Z,3.10
2018-07-30T05:23:20.332Z,2.90
2018-07-30T05:25:49.379Z,3.70
2018-07-30T05:28:18.115Z,3.40
2018-07-30T05:30:46.509Z,3.30
2018-07-30T05:33:15.459Z,3.40
2018-07-30T05:35:43.535Z,4.00
2018-07-30T05:38:15.741Z,3.60
2018-07-30T05:40:44.236Z,3.90
2018-07-30T05:43:13.256Z,3.50
2018-07-30T05:45:42.260Z,3.07
2018-07-30T05:48:10.655Z,2.97
2018-07-30T05:50:39.811Z,3.00
2018-07-30T05:53:08.857Z,3.50
2018-07-30T05:55:37.696Z,3.10
2018-07-30T05:58:07.227Z,3.50
2018-07-30T06:00:35.724Z,3.70
2018-07-30T06:03:03.808Z,3.40
2018-07-30T06:05:32.293Z,2.80
2018-07-30T06:08:00.573Z,3.17
2018-07-30T06:10:29.663Z,3.30
2018-07-30T06:12:58.657Z,2.90
2018-07-30T06:15:27.024Z,3.07
2018-07-30T06:17:55.356Z,2.90
2018-07-30T06:20:23.675Z,3.00
2018-07-30T06:22:51.780Z,3.07
2018-07-30T06:25:20.116Z,2.80
2018-07-30T06:27:48.289Z,3.50
2018-07-30T06:30:16.352Z,3.10
2018-07-30T06:32:45.357Z,3.50
2018-07-30T06:35:13.712Z,3.37
2018-07-30T06:37:42.060Z,3.43
2018-07-30T06:40:10.400Z,3.30
2018-07-30T06:42:38.467Z,2.77
2018-07-30T06:45:06.528Z,3.00
2018-07-30T06:47:34.883Z,3.43
2018-07-30T06:50:03.241Z,2.70
2018-07-30T06:52:31.556Z,3.23
2018-07-30T06:54:59.908Z,2.70
2018-07-30T06:57:28.231Z,2.60
2018-07-30T06:59:56.291Z,3.27
2018-07-30T07:02:24.635Z,2.50
2018-07-30T07:04:53.148Z,2.17
2018-07-30T07:07:21.223Z,2.60
2018-07-30T07:09:49.581Z,3.10
2018-07-30T07:12:17.944Z,2.50
2018-07-30T07:14:46.276Z,2.83
2018-07-30T07:17:14.343Z,2.60
2018-07-30T07:19:42.403Z,2.60
2018-07-30T07:22:10.729Z,2.43
2018-07-30T07:24:39.072Z,2.80
2018-07-30T07:27:07.210Z,2.50
2018-07-30T07:29:35.497Z,2.20
2018-07-30T07:32:03.853Z,2.50
2018-07-30T07:34:32.168Z,2.00
2018-07-30T07:37:00.239Z,2.10
2018-07-30T07:39:28.901Z,2.23
2018-07-30T07:41:57.457Z,2.00
2018-07-30T07:44:25.815Z,2.37
2018-07-30T07:46:54.158Z,2.43
2018-07-30T07:49:22.504Z,2.50
2018-07-30T07:51:50.845Z,2.00
2018-07-30T07:54:19.649Z,2.23
2018-07-30T07:56:48.352Z,2.33
2018-07-30T07:59:16.676Z,1.97
2018-07-30T08:01:44.747Z,1.80
2018-07-30T08:04:13.125Z,1.90
2018-07-30T08:06:41.472Z,1.93
2018-07-30T08:09:11.021Z,1.90
2018-07-30T08:11:39.484Z,1.70
2018-07-30T08:14:08.561Z,2.00
2018-07-30T08:16:37.172Z,1.80
2018-07-30T08:19:05.416Z,2.10
2018-07-30T08:21:33.772Z,2.10
2018-07-30T08:24:02.112Z,2.20
2018-07-30T08:26:30.188Z,2.20
2018-07-30T08:28:58.303Z,2.17
2018-07-30T08:31:26.591Z,1.87
2018-07-30T08:33:54.972Z,1.80
2018-07-30T08:36:23.454Z,1.77
2018-07-30T08:38:52.016Z,2.00
2018-07-30T08:41:20.227Z,1.90
2018-07-30T08:43:48.800Z,1.70
2018-07-30T08:46:17.222Z,1.50
2018-07-30T08:48:45.664Z,1.70
2018-07-30T08:51:13.980Z,1.80
2018-07-30T08:53:42.315Z,1.60
2018-07-30T08:56:10.673Z,1.60
2018-07-30T08:58:39.013Z,1.80
2018-07-30T09:01:07.324Z,1.70
2018-07-30T09:03:35.703Z,1.70
2018-07-30T09:06:04.060Z,1.60
2018-07-30T09:08:32.400Z,2.50
2018-07-30T09:11:00.777Z,2.20
2018-07-30T09:13:29.120Z,1.80
2018-07-30T09:15:57.783Z,1.90
2018-07-30T09:18:26.152Z,1.73
2018-07-30T09:20:54.480Z,1.50
2018-07-30T09:23:22.806Z,1.77
2018-07-30T09:25:51.164Z,2.03
2018-07-30T09:28:19.493Z,1.70
2018-07-30T09:30:47.824Z,2.30
2018-07-30T09:33:16.208Z,1.70
2018-07-30T09:35:44.291Z,2.03
2018-07-30T09:38:12.624Z,1.60
2018-07-30T09:40:40.991Z,1.70
2018-07-30T09:43:09.313Z,1.80
2018-07-30T09:45:37.395Z,1.43
2018-07-30T09:48:05.702Z,1.60
2018-07-30T09:50:34.076Z,1.83
2018-07-30T09:53:02.417Z,1.90
2018-07-30T09:55:30.507Z,2.00
2018-07-30T09:57:58.837Z,1.80
2018-07-30T10:00:32.739Z,2.20
2018-07-30T10:03:01.430Z,1.77
2018-07-30T10:05:29.934Z,1.70
2018-07-30T10:07:58.284Z,1.80
2018-07-30T10:10:26.614Z,1.90
2018-07-30T10:12:54.679Z,2.00
2018-07-30T10:15:23.487Z,1.70
2018-07-30T10:17:51.816Z,2.07
2018-07-30T10:20:20.160Z,2.33
2018-07-30T10:22:48.496Z,2.20
2018-07-30T10:25:16.818Z,2.33
2018-07-30T10:27:45.416Z,1.70
2018-07-30T10:30:13.767Z,1.70
2018-07-30T10:32:42.112Z,1.60
2018-07-30T10:35:10.195Z,1.73
2018-07-30T10:37:38.755Z,1.63
2018-07-30T10:40:07.099Z,1.67
2018-07-30T10:42:35.882Z,1.60
2018-07-30T10:45:04.261Z,1.70
2018-07-30T10:47:32.996Z,1.90
2018-07-30T10:50:01.823Z,1.70
2018-07-30T10:52:30.204Z,2.10
2018-07-30T10:54:58.535Z,1.57
2018-07-30T10:57:26.928Z,1.73
2018-07-30T10:59:55.007Z,2.00
2018-07-30T11:02:23.766Z,2.00
2018-07-30T11:04:52.132Z,1.83
2018-07-30T11:07:20.474Z,1.77
2018-07-30T11:09:48.844Z,1.80
2018-07-30T11:12:16.920Z,2.10
2018-07-30T11:14:46.336Z,2.00
2018-07-30T11:17:14.655Z,1.60
2018-07-30T11:19:43.016Z,2.03
2018-07-30T11:22:11.335Z,1.63
2018-07-30T11:24:40.270Z,1.67
2018-07-30T11:27:08.632Z,1.90
2018-07-30T11:29:36.963Z,2.07
2018-07-30T11:32:11.884Z,1.93
2018-07-30T11:34:40.213Z,1.40
2018-07-30T11:37:08.968Z,2.17
2018-07-30T11:39:37.328Z,1.80
2018-07-30T11:42:06.063Z,1.87
2018-07-30T11:44:34.388Z,1.50
2018-07-30T11:47:02.735Z,1.73
2018-07-30T11:49:31.162Z,1.50
2018-07-30T11:51:59.723Z,1.80
2018-07-30T11:54:28.166Z,1.73
2018-07-30T11:56:56.420Z,2.30
2018-07-30T11:59:24.749Z,1.87
2018-07-30T12:01:53.094Z,1.70
2018-07-30T12:04:21.521Z,1.60
2018-07-30T12:06:49.614Z,2.23
2018-07-30T12:09:17.950Z,1.70
2018-07-30T12:11:46.296Z,1.43
2018-07-30T12:14:14.611Z,1.73
2018-07-30T12:16:43.225Z,1.60
2018-07-30T12:19:11.588Z,1.33
2018-07-30T12:21:39.939Z,1.60
2018-07-30T12:24:08.283Z,1.60
2018-07-30T12:26:36.620Z,1.60
2018-07-30T12:29:05.008Z,1.60
2018-07-30T12:31:33.332Z,1.70
2018-07-30T12:34:01.407Z,1.57
2018-07-30T12:36:29.769Z,1.73
2018-07-30T12:38:58.109Z,1.50
2018-07-30T12:41:26.833Z,1.50
2018-07-30T12:43:55.158Z,1.60
2018-07-30T12:46:23.480Z,2.10
2018-07-30T12:48:51.844Z,1.50
2018-07-30T12:51:20.172Z,1.60
2018-07-30T12:53:48.919Z,2.00
2018-07-30T12:56:17.268Z,1.67
2018-07-30T12:58:45.591Z,1.63
2018-07-30T13:01:14.408Z,1.53
2018-07-30T13:03:42.744Z,1.50
2018-07-30T13:06:11.595Z,1.70
2018-07-30T13:08:39.927Z,2.50
2018-07-30T13:11:08.300Z,1.70
2018-07-30T13:13:36.644Z,1.67
2018-07-30T13:16:04.992Z,1.87
2018-07-30T13:18:33.336Z,1.90
2018-07-30T13:21:01.766Z,2.10
2018-07-30T13:23:30.039Z,1.80
2018-07-30T13:25:58.601Z,1.67
2018-07-30T13:28:26.984Z,1.93
2018-07-30T13:30:55.333Z,1.83
2018-07-30T13:33:23.721Z,1.97
2018-07-30T13:35:52.060Z,1.30
2018-07-30T13:38:20.877Z,1.77
2018-07-30T13:40:49.824Z,1.93
2018-07-30T13:43:18.139Z,1.53
2018-07-30T13:45:46.477Z,2.13
2018-07-30T13:48:14.847Z,1.70
2018-07-30T13:50:43.635Z,1.60
2018-07-30T13:53:12.023Z,1.80
2018-07-30T13:55:40.459Z,1.60
2018-07-30T13:58:08.783Z,1.37
2018-07-30T14:00:37.116Z,1.30
2018-07-30T14:03:05.864Z,1.20
2018-07-30T14:05:34.248Z,1.20
2018-07-30T14:08:02.592Z,1.40
2018-07-30T14:10:30.932Z,1.50
2018-07-30T14:12:59.259Z,1.60
2018-07-30T14:15:27.849Z,1.40
2018-07-30T14:17:56.724Z,1.80
2018-07-30T14:20:25.035Z,1.40
2018-07-30T14:22:53.364Z,1.30
2018-07-30T14:25:21.940Z,1.40
2018-07-30T14:27:50.584Z,1.60
2018-07-30T14:30:18.984Z,1.67
2018-07-30T14:32:47.336Z,1.60
2018-07-30T14:35:15.660Z,1.70
2018-07-30T14:37:43.735Z,1.90
2018-07-30T14:40:13.226Z,1.30
2018-07-30T14:42:47.873Z,1.60
2018-07-30T14:45:16.636Z,1.70
2018-07-30T14:47:44.984Z,1.57
2018-07-30T14:50:13.330Z,1.50
2018-07-30T14:52:41.675Z,1.70
2018-07-30T14:55:09.759Z,1.70
2018-07-30T14:57:37.871Z,1.50
2018-07-30T15:00:07.116Z,1.87
2018-07-30T15:02:35.523Z,1.30
2018-07-30T15:05:03.891Z,1.53
2018-07-30T15:07:32.252Z,1.60
2018-07-30T15:10:00.944Z,1.60
2018-07-30T15:12:29.338Z,1.57
2018-07-30T15:14:57.748Z,1.30
2018-07-30T15:17:26.088Z,1.50
2018-07-30T15:19:54.152Z,1.53
2018-07-30T15:22:22.495Z,1.60
2018-07-30T15:24:50.835Z,1.40
2018-07-30T15:27:19.267Z,1.33
2018-07-30T15:29:47.596Z,1.50
2018-07-30T15:32:16.311Z,1.43
2018-07-30T15:34:44.700Z,1.43
2018-07-30T15:37:13.052Z,1.50
2018-07-30T15:39:41.431Z,1.30
2018-07-30T15:42:10.208Z,1.30
2018-07-30T15:44:38.544Z,1.40
2018-07-30T15:47:06.881Z,1.40
2018-07-30T15:49:35.224Z,1.50
2018-07-30T15:52:03.279Z,1.60
2018-07-30T15:54:31.616Z,1.30
2018-07-30T15:57:00.145Z,1.50
2018-07-30T15:59:28.773Z,1.23
2018-07-30T16:01:57.427Z,1.50
2018-07-30T16:04:25.811Z,1.60
2018-07-30T16:06:54.136Z,1.70
2018-07-30T16:09:22.484Z,1.87
2018-07-30T16:11:50.916Z,1.10
2018-07-30T16:14:19.256Z,1.83
2018-07-30T16:16:47.833Z,1.40
2018-07-30T16:19:16.183Z,1.50
2018-07-30T16:21:44.251Z,1.40
2018-07-30T16:24:12.355Z,1.70
2018-07-30T16:26:40.752Z,1.50
2018-07-30T16:29:09.100Z,1.53
2018-07-30T16:31:37.419Z,1.57
2018-07-30T16:34:05.760Z,1.30
2018-07-30T16:36:34.338Z,1.60
2018-07-30T16:39:03.073Z,1.53
2018-07-30T16:41:38.327Z,1.30
2018-07-30T16:44:09.416Z,1.30
2018-07-30T16:46:40.306Z,1.93
2018-07-30T16:49:13.587Z,1.70
2018-07-30T16:51:46.576Z,1.40
2018-07-30T16:54:15.431Z,1.37
2018-07-30T16:56:47.538Z,1.50
2018-07-30T16:59:18.354Z,1.60
2018-07-30T17:01:50.058Z,1.20
2018-07-30T17:04:20.639Z,1.37
2018-07-30T17:06:49.410Z,1.47
2018-07-30T17:09:18.068Z,1.17
2018-07-30T17:11:47.067Z,1.60
2018-07-30T17:14:15.347Z,1.50
2018-07-30T17:16:44.452Z,1.30
2018-07-30T17:19:13.480Z,1.40
2018-07-30T17:21:42.142Z,1.53
2018-07-30T17:24:11.072Z,1.50
2018-07-30T17:26:40.021Z,1.27
2018-07-30T17:29:08.825Z,1.60
2018-07-30T17:31:37.776Z,1.40
2018-07-30T17:34:06.704Z,1.57
2018-07-30T17:36:35.500Z,1.20
2018-07-30T17:39:05.853Z,1.50
2018-07-30T17:41:34.784Z,1.97
2018-07-30T17:44:03.493Z,1.27
2018-07-30T17:46:32.393Z,1.40
2018-07-30T17:49:01.404Z,1.47
2018-07-30T17:51:30.068Z,1.50
2018-07-30T17:53:58.760Z,1.50
2018-07-30T17:56:27.955Z,1.37
2018-07-30T17:58:57.254Z,1.60
2018-07-30T18:01:26.030Z,1.60
2018-07-30T18:03:54.936Z,1.77
2018-07-30T18:06:23.818Z,1.73
2018-07-30T18:08:52.826Z,1.70
2018-07-30T18:11:21.593Z,1.93
2018-07-30T18:13:50.148Z,1.50
2018-07-30T18:16:18.396Z,1.80
2018-07-30T18:18:47.055Z,1.70
2018-07-30T18:21:15.933Z,1.73
2018-07-30T18:23:44.682Z,1.60
2018-07-30T18:26:26.721Z,2.00
2018-07-30T18:28:55.722Z,1.70
2018-07-30T18:31:24.698Z,1.80
2018-07-30T18:34:06.695Z,1.70
2018-07-30T18:36:35.586Z,1.70
2018-07-30T18:39:05.382Z,1.60
2018-07-30T18:41:34.117Z,1.63
2018-07-30T18:44:02.788Z,1.57
2018-07-30T18:46:31.557Z,1.60
2018-07-30T18:49:00.213Z,1.63
2018-07-30T18:51:28.642Z,1.60
2018-07-30T18:53:57.563Z,1.70
2018-07-30T18:56:26.332Z,1.73
2018-07-30T18:58:55.112Z,1.93
2018-07-30T19:01:23.787Z,1.60
2018-07-30T19:03:52.859Z,1.60
2018-07-30T19:06:22.844Z,1.67
2018-07-30T19:08:51.602Z,1.90
2018-07-30T19:11:21.305Z,1.80
2018-07-30T19:14:12.400Z,1.53
2018-07-30T19:16:44.158Z,1.70
2018-07-30T19:19:13.273Z,1.50
2018-07-30T19:21:42.062Z,1.60
2018-07-30T19:24:13.739Z,1.77
2018-07-30T19:26:42.996Z,1.87
2018-07-30T19:29:25.150Z,1.70
2018-07-30T19:31:54.490Z,1.60
2018-07-30T19:34:46.148Z,1.80
2018-07-30T19:37:16.633Z,1.77
2018-07-30T19:39:46.595Z,1.73
2018-07-30T19:42:15.130Z,1.73
2018-07-30T19:44:43.443Z,1.80
2018-07-30T19:47:12.376Z,1.80
2018-07-30T19:49:45.462Z,1.90
2018-07-30T19:52:14.215Z,1.70
2018-07-30T19:55:13.074Z,1.70
2018-07-30T19:57:42.811Z,1.80
2018-07-30T20:00:31.649Z,1.90
2018-07-30T20:03:00.578Z,1.60
2018-07-30T20:05:29.405Z,2.03
2018-07-30T20:07:57.724Z,2.77
2018-07-30T20:10:26.430Z,1.83
2018-07-30T20:12:55.053Z,1.70
2018-07-30T20:15:23.666Z,1.90
2018-07-30T20:17:52.211Z,1.90
2018-07-30T20:20:20.973Z,2.10
2018-07-30T20:22:49.613Z,2.17
2018-07-30T20:25:18.225Z,1.80
2018-07-30T20:27:46.927Z,1.73
2018-07-30T20:30:15.772Z,1.90
2018-07-30T20:32:44.438Z,1.90
2018-07-30T20:35:12.820Z,2.30
2018-07-30T20:37:42.097Z,1.90
2018-07-30T20:40:10.773Z,1.80
2018-07-30T20:42:39.163Z,2.10
2018-07-30T20:45:08.251Z,2.13
2018-07-30T20:47:36.997Z,2.00
2018-07-30T20:50:05.527Z,2.00
2018-07-30T20:52:34.329Z,1.80
2018-07-30T20:55:02.738Z,1.83
2018-07-30T20:57:31.642Z,1.70
2018-07-30T21:00:03.451Z,1.80
2018-07-30T21:02:32.241Z,2.10
2018-07-30T21:05:01.136Z,2.33
2018-07-30T21:07:30.053Z,2.10
2018-07-30T21:09:58.669Z,1.90
2018-07-30T21:12:27.285Z,1.90
2018-07-30T21:14:55.567Z,1.73
2018-07-30T21:17:24.415Z,2.10
2018-07-30T21:19:54.844Z,1.93
2018-07-30T21:22:23.695Z,1.70
2018-07-30T21:24:52.352Z,2.07
2018-07-30T21:27:20.796Z,2.03
2018-07-30T21:29:49.461Z,2.43
2018-07-30T21:32:18.028Z,2.57
2018-07-30T21:34:46.715Z,2.40
2018-07-30T21:37:15.365Z,2.40
2018-07-30T21:39:44.187Z,2.03
2018-07-30T21:42:13.084Z,2.40
2018-07-30T21:44:41.571Z,2.07
2018-07-30T21:47:10.282Z,1.90
2018-07-30T21:49:38.384Z,2.30
2018-07-30T21:52:06.852Z,2.30
2018-07-30T21:54:35.195Z,2.23
2018-07-30T21:57:03.339Z,2.70
2018-07-30T21:59:31.878Z,2.80
2018-07-30T22:02:00.234Z,2.20
2018-07-30T22:04:28.760Z,2.00
2018-07-30T22:06:57.118Z,2.07
2018-07-30T22:09:25.562Z,3.40
2018-07-30T22:11:53.942Z,2.10
2018-07-30T22:14:22.301Z,1.93
2018-07-30T22:16:50.680Z,2.03
2018-07-30T22:19:19.036Z,1.80
2018-07-30T22:21:47.388Z,2.10
2018-07-30T22:24:15.748Z,1.80
2018-07-30T22:26:44.691Z,2.53
2018-07-30T22:29:13.017Z,1.70
2018-07-30T22:31:41.100Z,2.30
2018-07-30T22:34:09.175Z,2.23
2018-07-30T22:36:37.512Z,2.10
2018-07-30T22:39:08.707Z,2.27
2018-07-30T22:41:37.292Z,2.50
2018-07-30T22:44:05.712Z,2.10
2018-07-30T22:46:34.057Z,2.43
2018-07-30T22:49:02.480Z,2.20
2018-07-30T22:51:30.840Z,2.20
2018-07-30T22:53:59.844Z,2.17
2018-07-30T22:56:28.331Z,2.00
2018-07-30T22:58:56.885Z,2.57
2018-07-30T23:01:25.239Z,1.83
2018-07-30T23:03:53.612Z,2.20
2018-07-30T23:06:21.787Z,3.03
2018-07-30T23:08:50.121Z,2.37
2018-07-30T23:11:18.504Z,2.30
2018-07-30T23:13:46.892Z,2.03
2018-07-30T23:16:15.232Z,2.63
2018-07-30T23:18:43.949Z,2.20
2018-07-30T23:21:12.297Z,2.43
2018-07-30T23:23:40.624Z,2.50
2018-07-30T23:26:08.967Z,1.90
2018-07-30T23:28:37.332Z,2.53
2018-07-30T23:31:05.904Z,2.13
2018-07-30T23:33:34.256Z,2.33
2018-07-30T23:36:02.321Z,2.23
2018-07-30T23:38:30.700Z,2.60
2018-07-30T23:40:58.814Z,2.40
2018-07-30T23:43:27.153Z,2.30
2018-07-30T23:45:55.244Z,2.50
2018-07-30T23:48:23.589Z,1.90
2018-07-30T23:50:51.923Z,2.33
2018-07-30T23:53:20.570Z,2.10
2018-07-30T23:55:48.932Z,2.30
2018-07-30T23:58:17.672Z,2.87
